Terminal Aerodrome Forecast
Issued by NWS

Home | Current Version | Previous Version | Text Only | Print | Product List | Glossary On
Versions: 1 2 3 4 5 6 7 8 9 10 11 12 13 14 15 16 17
509
FTUS41 KGYX 042320
TAFPSM
TAF
KPSM 042320Z 0500/0524 VRB03KT P6SM SKC
     FM051000 VRB03KT P6SM BKN050 OVC100
     FM051200 VRB04KT 1 1/2SM -SN BR OVC015
     FM052200 32005KT 5SM BR BKN025 OVC040=

USA.gov is the U.S. government's official web portal to all federal, state and local government web resources and services.